createdAt,value
2023-03-18T00:08:49.943Z,1010.57
2023-03-18T00:18:50.336Z,1010.65
2023-03-18T00:28:50.369Z,1010.74
2023-03-18T00:38:50.656Z,1010.87
2023-03-18T00:48:50.685Z,1011.00
2023-03-18T00:58:51.024Z,1011.02
2023-03-18T01:08:51.061Z,1010.96
2023-03-18T01:18:51.392Z,1010.91
2023-03-18T01:28:51.432Z,1010.84
2023-03-18T01:38:51.761Z,1010.92
2023-03-18T01:48:51.795Z,1010.91
2023-03-18T01:58:52.110Z,1010.87
2023-03-18T02:08:52.162Z,1010.89
2023-03-18T02:18:52.496Z,1010.86
2023-03-18T02:28:52.529Z,1010.93
2023-03-18T02:38:52.870Z,1010.98
2023-03-18T02:48:52.912Z,1010.93
2023-03-18T02:58:53.254Z,1010.94
2023-03-18T03:08:53.281Z,1011.09
2023-03-18T03:18:53.602Z,1011.02
2023-03-18T03:28:53.655Z,1010.99
2023-03-18T03:38:54.078Z,1010.95
2023-03-18T03:48:54.123Z,1011.21
2023-03-18T03:58:54.450Z,1011.26
2023-03-18T04:08:54.471Z,1011.10
2023-03-18T04:18:54.878Z,1011.20
2023-03-18T04:28:54.983Z,1011.18
2023-03-18T04:38:55.074Z,1011.27
2023-03-18T04:48:55.131Z,1011.22
2023-03-18T04:58:57.485Z,1011.25
2023-03-18T05:08:55.530Z,1011.23
2023-03-18T05:18:55.828Z,1011.27
2023-03-18T05:28:55.887Z,1011.20
2023-03-18T05:38:56.181Z,1011.32
2023-03-18T05:48:56.216Z,1011.30
2023-03-18T05:58:56.580Z,1011.22
2023-03-18T06:08:56.618Z,1011.26
2023-03-18T06:18:57.055Z,1011.28
2023-03-18T06:28:57.093Z,1011.27
2023-03-18T06:38:57.402Z,1011.38
2023-03-18T06:48:57.478Z,1011.30
2023-03-18T06:58:57.776Z,1011.33
2023-03-18T07:08:57.836Z,1011.34
2023-03-18T07:18:58.157Z,1011.31
2023-03-18T07:28:58.222Z,1011.37
2023-03-18T07:38:58.511Z,1011.43
2023-03-18T07:48:58.595Z,1011.39
2023-03-18T07:58:58.676Z,1011.34
2023-03-18T08:08:58.731Z,1011.43
2023-03-18T08:18:59.046Z,1011.56
2023-03-18T08:28:59.084Z,1011.51
2023-03-18T08:38:59.429Z,1011.47
2023-03-18T08:48:59.484Z,1011.37
2023-03-18T08:59:01.014Z,1011.28
2023-03-18T09:08:59.865Z,1011.19
2023-03-18T09:19:00.162Z,1011.05
2023-03-18T09:29:00.194Z,1010.98
2023-03-18T09:39:00.524Z,1010.90
2023-03-18T09:49:00.572Z,1010.67
2023-03-18T09:59:01.720Z,1010.53
2023-03-18T10:09:01.765Z,1010.37
2023-03-18T10:19:01.061Z,1010.36
2023-03-18T10:29:01.128Z,1010.42
2023-03-18T10:39:01.228Z,1010.30
2023-03-18T10:49:01.464Z,1010.33
2023-03-18T10:59:01.817Z,1010.14
2023-03-18T11:09:01.954Z,1010.08
2023-03-18T11:19:02.158Z,1010.14
2023-03-18T11:29:02.210Z,1010.03
2023-03-18T11:39:02.546Z,1009.85
2023-03-18T11:49:02.593Z,1009.71
2023-03-18T11:59:02.937Z,1009.63
2023-03-18T12:09:02.967Z,1009.60
2023-03-18T12:19:03.294Z,1009.52
2023-03-18T12:29:03.408Z,1009.38
2023-03-18T12:39:03.802Z,1009.32
2023-03-18T12:49:03.671Z,1009.18
2023-03-18T12:59:03.923Z,1009.02
2023-03-18T13:09:04.165Z,1008.86
2023-03-18T13:19:04.862Z,1008.78
2023-03-18T13:29:04.539Z,1008.78
2023-03-18T13:39:04.891Z,1008.73
2023-03-18T13:49:04.939Z,1008.65
2023-03-18T13:59:05.247Z,1008.66
2023-03-18T14:09:05.321Z,1008.64
2023-03-18T14:19:05.401Z,1008.64
2023-03-18T14:29:05.473Z,1008.51
2023-03-18T14:39:05.588Z,1008.37
2023-03-18T14:49:05.629Z,1008.37
2023-03-18T14:59:07.173Z,1008.42
2023-03-18T15:09:06.039Z,1008.32
2023-03-18T15:19:09.383Z,1008.25
2023-03-18T15:29:06.440Z,1008.24
2023-03-18T15:39:09.691Z,1008.30
2023-03-18T15:49:06.850Z,1008.21
2023-03-18T15:59:07.166Z,1008.19
2023-03-18T16:09:07.221Z,1008.25
2023-03-18T16:19:07.544Z,1008.28
2023-03-18T16:29:07.563Z,1008.37
2023-03-18T16:39:08.032Z,1008.51
2023-03-18T16:49:07.897Z,1008.50
2023-03-18T16:59:08.158Z,1008.50
2023-03-18T17:09:10.720Z,1008.57
2023-03-18T17:19:08.646Z,1008.60
2023-03-18T17:29:08.688Z,1008.65
2023-03-18T17:39:09.019Z,1008.74
2023-03-18T17:49:09.277Z,1008.73
2023-03-18T17:59:13.169Z,1008.77
2023-03-18T18:09:09.367Z,1008.76
2023-03-18T18:19:10.352Z,1008.90
2023-03-18T18:29:09.704Z,1009.06
2023-03-18T18:39:09.920Z,1009.04
2023-03-18T18:49:11.007Z,1009.02
2023-03-18T18:59:13.453Z,1009.25
2023-03-18T19:09:10.308Z,1009.39
2023-03-18T19:19:11.045Z,1009.42
2023-03-18T19:29:10.823Z,1009.46
2023-03-18T19:39:13.027Z,1009.68
2023-03-18T19:49:10.981Z,1009.73
2023-03-18T19:59:11.556Z,1009.95
2023-03-18T20:09:11.597Z,1010.06
2023-03-18T20:19:11.560Z,1010.19
2023-03-18T20:29:11.827Z,1010.21
2023-03-18T20:39:13.823Z,1010.27
2023-03-18T20:49:12.228Z,1010.32
2023-03-18T20:59:12.486Z,1010.40
2023-03-18T21:09:12.455Z,1010.45
2023-03-18T21:19:12.743Z,1010.50
2023-03-18T21:29:12.488Z,1010.44
2023-03-18T21:39:15.909Z,1010.48
2023-03-18T21:49:13.215Z,1010.56
2023-03-18T21:59:13.213Z,1010.68
2023-03-18T22:09:13.250Z,1010.74
2023-03-18T22:19:13.976Z,1010.65
2023-03-18T22:29:13.607Z,1010.66
2023-03-18T22:39:13.944Z,1010.65
2023-03-18T22:49:13.974Z,1010.66
2023-03-18T22:59:14.321Z,1010.83
2023-03-18T23:09:14.377Z,1010.91
2023-03-18T23:19:14.426Z,1010.98
2023-03-18T23:29:14.661Z,1011.00
2023-03-18T23:39:14.918Z,1011.05
2023-03-18T23:49:15.139Z,1011.03
2023-03-18T23:59:15.723Z,1011.12
